Terminal Aerodrome Forecast
Issued by NWS Quad Cities IA IL

Home | Current Version | Previous Version | Text Only | Print | Product List | Glossary On
Versions: 1 2 3 4 5 6 7 8 9 10 11 12 13 14 15 16 17 18 19 20 21 22 23 24 25 26 27 28
000
FTUS43 KDVN 271500 AAC
TAFMLI
TAF AMD
KMLI 271510Z 2715/2812 29013KT 4SM -SN BKN014 OVC040
     FM271700 31012KT P6SM SKC
     FM280000 VRB02KT P6SM BKN100=

USA.gov is the U.S. government's official web portal to all federal, state and local government web resources and services.